sim
Sign-in with your pilot id or email,
or register
Callsign
Passwort

Schedule Details

Flight Number: OEO3129
Departure: Manchester Airport (EGCC) at 10:05
Arrival: Munich Airport (EDDM) at 12:05

Weather Information
Getting current METAR information for EGCC 261720Z AUTO 34010KT 9999 FEW038 BKN045 12/05 Q1016 NOSIG
Getting current METAR information for EDDM 261720Z 25022KT 9999 -RA SCT023 OVC029 07/04 Q1000 NOSIG

Schedule Frequency

Route Map